sensor_id;sensor_type;location;lat;lon;timestamp;pressure;altitude;pressure_sealevel;temperature;humidity
5350;BME280;2697;42.144;24.794;2023-12-04T00:01:31;154051.84;;;5.77;100.00
5350;BME280;2697;42.144;24.794;2023-12-04T00:03:56;154037.47;;;5.71;100.00
5350;BME280;2697;42.144;24.794;2023-12-04T00:06:22;154050.53;;;5.76;100.00
5350;BME280;2697;42.144;24.794;2023-12-04T00:08:48;154051.84;;;5.77;100.00
5350;BME280;2697;42.144;24.794;2023-12-04T00:11:13;154079.44;;;5.87;100.00
5350;BME280;2697;42.144;24.794;2023-12-04T00:13:38;154088.66;;;5.91;100.00
5350;BME280;2697;42.144;24.794;2023-12-04T00:16:04;154107.03;;;5.98;100.00
5350;BME280;2697;42.144;24.794;2023-12-04T00:18:31;154103.09;;;5.96;100.00
5350;BME280;2697;42.144;24.794;2023-12-04T00:20:56;154110.94;;;5.99;100.00
5350;BME280;2697;42.144;24.794;2023-12-04T00:23:22;154124.03;;;6.05;100.00
5350;BME280;2697;42.144;24.794;2023-12-04T00:25:47;154121.44;;;6.04;100.00
5350;BME280;2697;42.144;24.794;2023-12-04T00:28:12;154059.75;;;5.80;100.00
5350;BME280;2697;42.144;24.794;2023-12-04T00:30:38;154110.94;;;5.99;100.00
5350;BME280;2697;42.144;24.794;2023-12-04T00:33:03;154082.06;;;5.88;100.00
5350;BME280;2697;42.144;24.794;2023-12-04T00:35:28;154096.50;;;5.94;100.00
5350;BME280;2697;42.144;24.794;2023-12-04T00:37:54;154084.69;;;5.89;100.00
5350;BME280;2697;42.144;24.794;2023-12-04T00:40:19;154084.69;;;5.89;100.00
5350;BME280;2697;42.144;24.794;2023-12-04T00:42:45;154088.66;;;5.91;100.00
5350;BME280;2697;42.144;24.794;2023-12-04T00:45:10;154103.09;;;5.96;100.00
5350;BME280;2697;42.144;24.794;2023-12-04T00:47:36;154105.72;;;5.97;100.00
5350;BME280;2697;42.144;24.794;2023-12-04T00:50:01;154101.78;;;5.96;100.00
5350;BME280;2697;42.144;24.794;2023-12-04T00:52:26;154117.50;;;6.02;100.00
5350;BME280;2697;42.144;24.794;2023-12-04T00:54:52;154139.81;;;6.11;100.00
5350;BME280;2697;42.144;24.794;2023-12-04T00:57:18;154116.19;;;6.02;100.00
5350;BME280;2697;42.144;24.794;2023-12-04T00:59:44;154105.72;;;5.97;100.00
5350;BME280;2697;42.144;24.794;2023-12-04T01:02:09;154108.34;;;5.98;100.00
5350;BME280;2697;42.144;24.794;2023-12-04T01:04:35;154108.34;;;5.98;100.00
5350;BME280;2697;42.144;24.794;2023-12-04T01:07:01;154131.94;;;6.08;100.00
5350;BME280;2697;42.144;24.794;2023-12-04T01:09:26;154110.94;;;5.99;100.00
5350;BME280;2697;42.144;24.794;2023-12-04T01:11:53;154087.34;;;5.90;100.00
5350;BME280;2697;42.144;24.794;2023-12-04T01:14:18;154126.72;;;6.06;100.00
5350;BME280;2697;42.144;24.794;2023-12-04T01:16:44;154134.56;;;6.09;100.00
5350;BME280;2697;42.144;24.794;2023-12-04T01:19:09;154116.19;;;6.02;100.00
5350;BME280;2697;42.144;24.794;2023-12-04T01:21:35;154138.50;;;6.10;100.00
5350;BME280;2697;42.144;24.794;2023-12-04T01:24:00;154112.25;;;6.00;100.00
5350;BME280;2697;42.144;24.794;2023-12-04T01:26:26;154084.69;;;5.89;100.00
5350;BME280;2697;42.144;24.794;2023-12-04T01:28:51;154082.06;;;5.88;100.00
5350;BME280;2697;42.144;24.794;2023-12-04T01:31:16;154089.97;;;5.91;100.00
5350;BME280;2697;42.144;24.794;2023-12-04T01:33:42;154078.13;;;5.87;100.00
5350;BME280;2697;42.144;24.794;2023-12-04T01:36:08;154112.25;;;6.00;100.00
5350;BME280;2697;42.144;24.794;2023-12-04T01:38:33;154100.44;;;5.95;100.00
5350;BME280;2697;42.144;24.794;2023-12-04T01:40:58;154109.66;;;5.99;100.00
5350;BME280;2697;42.144;24.794;2023-12-04T01:43:24;154103.09;;;5.96;100.00
5350;BME280;2697;42.144;24.794;2023-12-04T01:45:49;154055.84;;;5.78;100.00
5350;BME280;2697;42.144;24.794;2023-12-04T01:48:17;154046.63;;;5.75;100.00
5350;BME280;2697;42.144;24.794;2023-12-04T01:50:43;154017.78;;;5.63;100.00
5350;BME280;2697;42.144;24.794;2023-12-04T01:53:10;154033.53;;;5.69;100.00
5350;BME280;2697;42.144;24.794;2023-12-04T01:55:36;154019.09;;;5.64;100.00
5350;BME280;2697;42.144;24.794;2023-12-04T01:58:03;153988.94;;;5.52;100.00
5350;BME280;2697;42.144;24.794;2023-12-04T02:00:30;154013.84;;;5.62;100.00
5350;BME280;2697;42.144;24.794;2023-12-04T02:02:56;154023.00;;;5.65;100.00
5350;BME280;2697;42.144;24.794;2023-12-04T02:05:22;154029.59;;;5.68;100.00
5350;BME280;2697;42.144;24.794;2023-12-04T02:07:48;154013.84;;;5.62;100.00
5350;BME280;2697;42.144;24.794;2023-12-04T02:10:13;154016.47;;;5.63;100.00
5350;BME280;2697;42.144;24.794;2023-12-04T02:12:39;153987.63;;;5.52;100.00
5350;BME280;2697;42.144;24.794;2023-12-04T02:15:05;153985.00;;;5.51;100.00
5350;BME280;2697;42.144;24.794;2023-12-04T02:17:32;153995.47;;;5.55;100.00
5350;BME280;2697;42.144;24.794;2023-12-04T02:19:57;153967.94;;;5.44;100.00
5350;BME280;2697;42.144;24.794;2023-12-04T02:22:23;153982.41;;;5.50;100.00
5350;BME280;2697;42.144;24.794;2023-12-04T02:24:48;153983.69;;;5.50;100.00
5350;BME280;2697;42.144;24.794;2023-12-04T02:27:35;153999.41;;;5.56;100.00
5350;BME280;2697;42.144;24.794;2023-12-04T02:30:05;154000.72;;;5.57;100.00
5350;BME280;2697;42.144;24.794;2023-12-04T02:32:33;153983.69;;;5.50;100.00
5350;BME280;2697;42.144;24.794;2023-12-04T02:35:04;153977.09;;;5.48;100.00
5350;BME280;2697;42.144;24.794;2023-12-04T02:37:30;154002.03;;;5.57;100.00
5350;BME280;2697;42.144;24.794;2023-12-04T02:39:57;154002.03;;;5.57;100.00
5350;BME280;2697;42.144;24.794;2023-12-04T02:42:23;153982.41;;;5.50;100.00
5350;BME280;2697;42.144;24.794;2023-12-04T02:44:52;153990.25;;;5.53;100.00
5350;BME280;2697;42.144;24.794;2023-12-04T02:47:18;153979.72;;;5.49;100.00
5350;BME280;2697;42.144;24.794;2023-12-04T02:49:43;153971.88;;;5.46;100.00
5350;BME280;2697;42.144;24.794;2023-12-04T02:52:08;153994.16;;;5.54;100.00
5350;BME280;2697;42.144;24.794;2023-12-04T02:54:34;153992.84;;;5.54;100.00
5350;BME280;2697;42.144;24.794;2023-12-04T02:56:59;153998.09;;;5.56;100.00
5350;BME280;2697;42.144;24.794;2023-12-04T02:59:25;153987.63;;;5.52;100.00
5350;BME280;2697;42.144;24.794;2023-12-04T03:01:50;153977.09;;;5.48;100.00
5350;BME280;2697;42.144;24.794;2023-12-04T03:04:15;153966.63;;;5.43;100.00
5350;BME280;2697;42.144;24.794;2023-12-04T03:06:41;153952.19;;;5.38;100.00
5350;BME280;2697;42.144;24.794;2023-12-04T03:09:06;153964.03;;;5.42;100.00
5350;BME280;2697;42.144;24.794;2023-12-04T03:11:32;153937.81;;;5.32;100.00
5350;BME280;2697;42.144;24.794;2023-12-04T03:13:59;153903.69;;;5.19;100.00
5350;BME280;2697;42.144;24.794;2023-12-04T03:16:25;153898.47;;;5.17;100.00
5350;BME280;2697;42.144;24.794;2023-12-04T03:18:50;153916.81;;;5.24;100.00
5350;BME280;2697;42.144;24.794;2023-12-04T03:21:16;153894.53;;;5.15;100.00
5350;BME280;2697;42.144;24.794;2023-12-04T03:23:41;153882.72;;;5.11;100.00
5350;BME280;2697;42.144;24.794;2023-12-04T03:26:07;153876.16;;;5.08;100.00
5350;BME280;2697;42.144;24.794;2023-12-04T03:28:32;153885.38;;;5.12;100.00
5350;BME280;2697;42.144;24.794;2023-12-04T03:30:58;153888.00;;;5.13;100.00
5350;BME280;2697;42.144;24.794;2023-12-04T03:33:23;153868.31;;;5.05;100.00
5350;BME280;2697;42.144;24.794;2023-12-04T03:35:48;153888.00;;;5.13;100.00
5350;BME280;2697;42.144;24.794;2023-12-04T03:38:14;153889.31;;;5.13;100.00
5350;BME280;2697;42.144;24.794;2023-12-04T03:40:39;153878.78;;;5.09;100.00
5350;BME280;2697;42.144;24.794;2023-12-04T03:43:04;153830.28;;;4.91;100.00
5350;BME280;2697;42.144;24.794;2023-12-04T03:45:30;153859.13;;;5.02;100.00
5350;BME280;2697;42.144;24.794;2023-12-04T03:47:55;153851.25;;;4.99;100.00
5350;BME280;2697;42.144;24.794;2023-12-04T03:50:21;153867.00;;;5.05;100.00
5350;BME280;2697;42.144;24.794;2023-12-04T03:52:46;153865.72;;;5.04;100.00
5350;BME280;2697;42.144;24.794;2023-12-04T03:55:11;153848.66;;;4.98;100.00
5350;BME280;2697;42.144;24.794;2023-12-04T03:57:37;153914.22;;;5.23;100.00
5350;BME280;2697;42.144;24.794;2023-12-04T04:00:03;153859.13;;;5.02;100.00
5350;BME280;2697;42.144;24.794;2023-12-04T04:02:29;153832.91;;;4.92;100.00
5350;BME280;2697;42.144;24.794;2023-12-04T04:04:54;153853.88;;;5.00;100.00
5350;BME280;2697;42.144;24.794;2023-12-04T04:07:20;153863.09;;;5.03;100.00
5350;BME280;2697;42.144;24.794;2023-12-04T04:09:45;153867.00;;;5.05;100.00
5350;BME280;2697;42.144;24.794;2023-12-04T04:12:11;153836.84;;;4.93;99.93
5350;BME280;2697;42.144;24.794;2023-12-04T04:14:37;153840.81;;;4.95;99.56
5350;BME280;2697;42.144;24.794;2023-12-04T04:17:02;153877.47;;;5.09;99.85
5350;BME280;2697;42.144;24.794;2023-12-04T04:19:28;153846.03;;;4.97;98.98
5350;BME280;2697;42.144;24.794;2023-12-04T04:21:54;153819.81;;;4.86;99.59
5350;BME280;2697;42.144;24.794;2023-12-04T04:24:19;153855.19;;;5.00;99.53
5350;BME280;2697;42.144;24.794;2023-12-04T04:26:44;153817.22;;;4.85;98.74
5350;BME280;2697;42.144;24.794;2023-12-04T04:29:10;153827.69;;;4.90;98.88
5350;BME280;2697;42.144;24.794;2023-12-04T04:31:35;153826.38;;;4.89;97.13
5350;BME280;2697;42.144;24.794;2023-12-04T04:34:01;153836.84;;;4.93;97.13
5350;BME280;2697;42.144;24.794;2023-12-04T04:36:27;153781.81;;;4.72;95.89
5350;BME280;2697;42.144;24.794;2023-12-04T04:38:52;153780.50;;;4.71;97.39
5350;BME280;2697;42.144;24.794;2023-12-04T04:41:18;153780.50;;;4.71;97.21
5350;BME280;2697;42.144;24.794;2023-12-04T04:43:43;153801.47;;;4.79;96.46
5350;BME280;2697;42.144;24.794;2023-12-04T04:46:09;153771.34;;;4.68;96.04
5350;BME280;2697;42.144;24.794;2023-12-04T04:48:34;153777.88;;;4.70;94.97
5350;BME280;2697;42.144;24.794;2023-12-04T04:51:00;153763.44;;;4.65;96.42
5350;BME280;2697;42.144;24.794;2023-12-04T04:53:25;153725.47;;;4.50;96.29
5350;BME280;2697;42.144;24.794;2023-12-04T04:55:50;153730.72;;;4.52;96.40
5350;BME280;2697;42.144;24.794;2023-12-04T04:58:16;153754.28;;;4.61;98.53
5350;BME280;2697;42.144;24.794;2023-12-04T05:00:42;153728.09;;;4.51;97.04
5350;BME280;2697;42.144;24.794;2023-12-04T05:03:08;153717.63;;;4.47;96.84
5350;BME280;2697;42.144;24.794;2023-12-04T05:05:33;153720.25;;;4.48;97.96
5350;BME280;2697;42.144;24.794;2023-12-04T05:07:58;153708.44;;;4.43;95.59
5350;BME280;2697;42.144;24.794;2023-12-04T05:10:24;153700.59;;;4.40;96.58
5350;BME280;2697;42.144;24.794;2023-12-04T05:12:49;153666.50;;;4.27;96.48
5350;BME280;2697;42.144;24.794;2023-12-04T05:15:15;153654.75;;;4.22;96.45
5350;BME280;2697;42.144;24.794;2023-12-04T05:17:40;153650.81;;;4.21;96.19
5350;BME280;2697;42.144;24.794;2023-12-04T05:20:06;153646.91;;;4.19;96.27
5350;BME280;2697;42.144;24.794;2023-12-04T05:22:33;153659.97;;;4.24;96.46
5350;BME280;2697;42.144;24.794;2023-12-04T05:24:59;153652.13;;;4.21;96.07
5350;BME280;2697;42.144;24.794;2023-12-04T05:27:24;153641.63;;;4.17;95.48
5350;BME280;2697;42.144;24.794;2023-12-04T05:29:49;153659.97;;;4.24;93.55
5350;BME280;2697;42.144;24.794;2023-12-04T05:32:15;153663.88;;;4.26;94.89
5350;BME280;2697;42.144;24.794;2023-12-04T05:34:40;153652.13;;;4.21;93.42
5350;BME280;2697;42.144;24.794;2023-12-04T05:37:06;153652.13;;;4.21;93.13
5350;BME280;2697;42.144;24.794;2023-12-04T05:39:31;153644.22;;;4.18;93.95
5350;BME280;2697;42.144;24.794;2023-12-04T05:41:56;153657.34;;;4.23;94.00
5350;BME280;2697;42.144;24.794;2023-12-04T05:44:22;153654.75;;;4.22;92.52
5350;BME280;2697;42.144;24.794;2023-12-04T05:46:48;153666.50;;;4.27;92.44
5350;BME280;2697;42.144;24.794;2023-12-04T05:49:13;153688.78;;;4.36;93.53
5350;BME280;2697;42.144;24.794;2023-12-04T05:51:38;153683.53;;;4.34;92.99
5350;BME280;2697;42.144;24.794;2023-12-04T05:54:04;153688.78;;;4.36;92.70
5350;BME280;2697;42.144;24.794;2023-12-04T05:56:29;153730.72;;;4.52;91.84
5350;BME280;2697;42.144;24.794;2023-12-04T05:58:54;153751.69;;;4.60;93.05
5350;BME280;2697;42.144;24.794;2023-12-04T06:01:21;153730.72;;;4.52;93.02
5350;BME280;2697;42.144;24.794;2023-12-04T06:03:46;153707.13;;;4.43;92.63
5350;BME280;2697;42.144;24.794;2023-12-04T06:06:11;153680.94;;;4.33;90.03
5350;BME280;2697;42.144;24.794;2023-12-04T06:08:37;153654.75;;;4.22;85.89
5350;BME280;2697;42.144;24.794;2023-12-04T06:11:02;153657.34;;;4.23;83.52
5350;BME280;2697;42.144;24.794;2023-12-04T06:13:28;153640.31;;;4.17;84.20
5350;BME280;2697;42.144;24.794;2023-12-04T06:15:53;153654.75;;;4.22;82.57
5350;BME280;2697;42.144;24.794;2023-12-04T06:18:18;153688.78;;;4.36;81.93
5350;BME280;2697;42.144;24.794;2023-12-04T06:20:45;153696.66;;;4.39;82.58
5350;BME280;2697;42.144;24.794;2023-12-04T06:23:11;153677.00;;;4.31;84.63
5350;BME280;2697;42.144;24.794;2023-12-04T06:25:37;153722.88;;;4.49;84.18
5350;BME280;2697;42.144;24.794;2023-12-04T06:28:04;153716.28;;;4.46;85.50
5350;BME280;2697;42.144;24.794;2023-12-04T06:30:29;153741.22;;;4.56;85.00
5350;BME280;2697;42.144;24.794;2023-12-04T06:32:55;153742.53;;;4.56;85.17
5350;BME280;2697;42.144;24.794;2023-12-04T06:35:21;153776.56;;;4.70;85.33
5350;BME280;2697;42.144;24.794;2023-12-04T06:37:48;153788.34;;;4.74;85.22
5350;BME280;2697;42.144;24.794;2023-12-04T06:40:14;153787.03;;;4.74;87.09
5350;BME280;2697;42.144;24.794;2023-12-04T06:42:39;153819.81;;;4.86;83.76
5350;BME280;2697;42.144;24.794;2023-12-04T06:45:07;153776.56;;;4.70;83.88
5350;BME280;2697;42.144;24.794;2023-12-04T06:47:34;153797.53;;;4.78;81.57
5350;BME280;2697;42.144;24.794;2023-12-04T06:49:59;153785.72;;;4.73;81.47
5350;BME280;2697;42.144;24.794;2023-12-04T06:52:25;153825.06;;;4.89;81.25
5350;BME280;2697;42.144;24.794;2023-12-04T06:54:50;153819.81;;;4.86;81.01
5350;BME280;2697;42.144;24.794;2023-12-04T06:57:16;153827.69;;;4.90;80.82
5350;BME280;2697;42.144;24.794;2023-12-04T06:59:42;153859.13;;;5.02;81.32
5350;BME280;2697;42.144;24.794;2023-12-04T07:02:07;153877.47;;;5.09;80.03
5350;BME280;2697;42.144;24.794;2023-12-04T07:04:33;153827.69;;;4.90;79.99
5350;BME280;2697;42.144;24.794;2023-12-04T07:06:58;153817.22;;;4.85;82.50
5350;BME280;2697;42.144;24.794;2023-12-04T07:09:32;153835.53;;;4.93;79.68
5350;BME280;2697;42.144;24.794;2023-12-04T07:11:59;153797.53;;;4.78;80.08
5350;BME280;2697;42.144;24.794;2023-12-04T07:14:24;153775.25;;;4.69;79.75
5350;BME280;2697;42.144;24.794;2023-12-04T07:16:50;153794.94;;;4.77;80.37
5350;BME280;2697;42.144;24.794;2023-12-04T07:19:15;153840.81;;;4.95;79.87
5350;BME280;2697;42.144;24.794;2023-12-04T07:21:41;153880.09;;;5.10;78.88
5350;BME280;2697;42.144;24.794;2023-12-04T07:24:07;153840.81;;;4.95;80.29
5350;BME280;2697;42.144;24.794;2023-12-04T07:26:34;153832.91;;;4.92;77.51
5350;BME280;2697;42.144;24.794;2023-12-04T07:29:00;153906.31;;;5.20;78.67
5350;BME280;2697;42.144;24.794;2023-12-04T07:31:25;153948.28;;;5.36;76.35
5350;BME280;2697;42.144;24.794;2023-12-04T07:33:55;153985.00;;;5.51;75.20
5350;BME280;2697;42.144;24.794;2023-12-04T07:36:21;153945.66;;;5.35;77.90
5350;BME280;2697;42.144;24.794;2023-12-04T07:38:47;153957.47;;;5.40;76.20
5350;BME280;2697;42.144;24.794;2023-12-04T07:41:12;153998.09;;;5.56;75.93
5350;BME280;2697;42.144;24.794;2023-12-04T07:43:39;153962.72;;;5.42;77.13
5350;BME280;2697;42.144;24.794;2023-12-04T07:46:05;153954.81;;;5.39;75.43
5350;BME280;2697;42.144;24.794;2023-12-04T07:48:30;153908.97;;;5.21;76.40
5350;BME280;2697;42.144;24.794;2023-12-04T07:50:56;153949.59;;;5.37;77.62
5350;BME280;2697;42.144;24.794;2023-12-04T07:53:22;153922.06;;;5.26;75.85
5350;BME280;2697;42.144;24.794;2023-12-04T07:55:48;153952.19;;;5.38;74.71
5350;BME280;2697;42.144;24.794;2023-12-04T07:58:16;153962.72;;;5.42;76.10
5350;BME280;2697;42.144;24.794;2023-12-04T08:00:42;154011.22;;;5.61;74.57
5350;BME280;2697;42.144;24.794;2023-12-04T08:03:07;153982.41;;;5.50;73.53
5350;BME280;2697;42.144;24.794;2023-12-04T08:05:32;153987.63;;;5.52;72.62
5350;BME280;2697;42.144;24.794;2023-12-04T08:08:00;154037.47;;;5.71;71.42
5350;BME280;2697;42.144;24.794;2023-12-04T08:10:25;154007.31;;;5.59;72.07
5350;BME280;2697;42.144;24.794;2023-12-04T08:12:50;154003.31;;;5.58;71.25
5350;BME280;2697;42.144;24.794;2023-12-04T08:15:16;154050.53;;;5.76;71.89
5350;BME280;2697;42.144;24.794;2023-12-04T08:17:41;154023.00;;;5.65;72.85
5350;BME280;2697;42.144;24.794;2023-12-04T08:20:07;154099.13;;;5.95;70.27
5350;BME280;2697;42.144;24.794;2023-12-04T08:22:39;154057.13;;;5.79;71.82
5350;BME280;2697;42.144;24.794;2023-12-04T08:25:04;154032.22;;;5.69;70.93
5350;BME280;2697;42.144;24.794;2023-12-04T08:27:32;154030.91;;;5.68;71.95
5350;BME280;2697;42.144;24.794;2023-12-04T08:29:57;154121.44;;;6.04;69.80
5350;BME280;2697;42.144;24.794;2023-12-04T08:32:23;154121.44;;;6.04;71.03
5350;BME280;2697;42.144;24.794;2023-12-04T08:34:51;154084.69;;;5.89;70.62
5350;BME280;2697;42.144;24.794;2023-12-04T08:37:18;154146.34;;;6.13;71.17
5350;BME280;2697;42.144;24.794;2023-12-04T08:39:44;154168.66;;;6.22;70.85
5350;BME280;2697;42.144;24.794;2023-12-04T08:42:09;154137.19;;;6.10;71.13
5350;BME280;2697;42.144;24.794;2023-12-04T08:44:35;154158.19;;;6.18;70.61
5350;BME280;2697;42.144;24.794;2023-12-04T08:47:00;154139.81;;;6.11;69.69
5350;BME280;2697;42.144;24.794;2023-12-04T08:49:26;154192.28;;;6.31;70.56
5350;BME280;2697;42.144;24.794;2023-12-04T08:51:52;154213.28;;;6.39;69.14
5350;BME280;2697;42.144;24.794;2023-12-04T08:54:20;154150.34;;;6.15;69.16
5350;BME280;2697;42.144;24.794;2023-12-04T08:56:46;154183.13;;;6.27;70.20
5350;BME280;2697;42.144;24.794;2023-12-04T08:59:12;154198.88;;;6.34;69.91
5350;BME280;2697;42.144;24.794;2023-12-04T09:01:38;154232.97;;;6.47;70.30
5350;BME280;2697;42.144;24.794;2023-12-04T09:04:04;154226.44;;;6.44;70.59
5350;BME280;2697;42.144;24.794;2023-12-04T09:06:29;154290.69;;;6.69;69.03
5350;BME280;2697;42.144;24.794;2023-12-04T09:08:54;154276.28;;;6.64;69.87
5350;BME280;2697;42.144;24.794;2023-12-04T09:11:20;154294.69;;;6.71;68.88
5350;BME280;2697;42.144;24.794;2023-12-04T09:13:45;154299.91;;;6.73;69.69
5350;BME280;2697;42.144;24.794;2023-12-04T09:16:11;154330.09;;;6.84;69.48
5350;BME280;2697;42.144;24.794;2023-12-04T09:18:36;154297.31;;;6.72;69.47
5350;BME280;2697;42.144;24.794;2023-12-04T09:21:02;154328.78;;;6.84;70.08
5350;BME280;2697;42.144;24.794;2023-12-04T09:23:27;154358.97;;;6.96;70.64
5350;BME280;2697;42.144;24.794;2023-12-04T09:25:52;154344.56;;;6.90;69.46
5350;BME280;2697;42.144;24.794;2023-12-04T09:28:18;154368.19;;;6.99;69.42
5350;BME280;2697;42.144;24.794;2023-12-04T09:30:43;154317.00;;;6.79;69.71
5350;BME280;2697;42.144;24.794;2023-12-04T09:33:09;154399.69;;;7.11;71.09
5350;BME280;2697;42.144;24.794;2023-12-04T09:35:34;154528.38;;;7.61;71.04
5350;BME280;2697;42.144;24.794;2023-12-04T09:37:59;154646.63;;;8.07;68.25
5350;BME280;2697;42.144;24.794;2023-12-04T09:40:25;154620.34;;;7.97;68.37
5350;BME280;2697;42.144;24.794;2023-12-04T09:42:51;154567.81;;;7.77;69.79
5350;BME280;2697;42.144;24.794;2023-12-04T09:45:18;154531.00;;;7.62;69.56
5350;BME280;2697;42.144;24.794;2023-12-04T09:47:44;154538.91;;;7.65;69.50
5350;BME280;2697;42.144;24.794;2023-12-04T09:50:10;154633.50;;;8.02;67.36
5350;BME280;2697;42.144;24.794;2023-12-04T09:52:36;154545.47;;;7.68;68.82
5350;BME280;2697;42.144;24.794;2023-12-04T09:55:01;154586.22;;;7.84;68.26
5350;BME280;2697;42.144;24.794;2023-12-04T09:57:28;154603.25;;;7.90;69.25
5350;BME280;2697;42.144;24.794;2023-12-04T09:59:54;154705.78;;;8.30;67.71
5350;BME280;2697;42.144;24.794;2023-12-04T10:02:20;154688.69;;;8.23;68.98
5350;BME280;2697;42.144;24.794;2023-12-04T10:04:47;154738.69;;;8.43;66.20
5350;BME280;2697;42.144;24.794;2023-12-04T10:07:12;154687.38;;;8.23;65.61
5350;BME280;2697;42.144;24.794;2023-12-04T10:09:38;154717.66;;;8.35;66.55
5350;BME280;2697;42.144;24.794;2023-12-04T10:12:05;154670.28;;;8.16;66.87
5350;BME280;2697;42.144;24.794;2023-12-04T10:14:31;154720.28;;;8.36;67.57
5350;BME280;2697;42.144;24.794;2023-12-04T10:16:56;154709.72;;;8.32;68.55
5350;BME280;2697;42.144;24.794;2023-12-04T10:19:24;154761.03;;;8.51;67.70
5350;BME280;2697;42.144;24.794;2023-12-04T10:21:52;154793.88;;;8.64;67.56
5350;BME280;2697;42.144;24.794;2023-12-04T10:24:37;154788.63;;;8.62;65.71
5350;BME280;2697;42.144;24.794;2023-12-04T10:27:07;154778.13;;;8.58;66.58
5350;BME280;2697;42.144;24.794;2023-12-04T10:29:47;154720.28;;;8.36;68.19
5350;BME280;2697;42.144;24.794;2023-12-04T10:32:18;154824.16;;;8.76;66.30
5350;BME280;2697;42.144;24.794;2023-12-04T10:34:46;154854.38;;;8.88;66.19
5350;BME280;2697;42.144;24.794;2023-12-04T10:37:12;154799.19;;;8.66;67.85
5350;BME280;2697;42.144;24.794;2023-12-04T10:39:49;154814.94;;;8.72;66.15
5350;BME280;2697;42.144;24.794;2023-12-04T10:42:28;154808.38;;;8.70;66.39
5350;BME280;2697;42.144;24.794;2023-12-04T10:44:58;154796.50;;;8.65;67.63
5350;BME280;2697;42.144;24.794;2023-12-04T10:47:24;154841.22;;;8.82;66.95
5350;BME280;2697;42.144;24.794;2023-12-04T10:49:50;154841.22;;;8.82;66.64
5350;BME280;2697;42.144;24.794;2023-12-04T10:52:17;154835.97;;;8.80;66.69
5350;BME280;2697;42.144;24.794;2023-12-04T10:54:47;154742.63;;;8.44;69.12
5350;BME280;2697;42.144;24.794;2023-12-04T10:57:21;154793.88;;;8.64;67.43
5350;BME280;2697;42.144;24.794;2023-12-04T10:59:48;154853.06;;;8.87;67.29
5350;BME280;2697;42.144;24.794;2023-12-04T11:02:20;154860.94;;;8.90;67.78
5350;BME280;2697;42.144;24.794;2023-12-04T11:04:49;154905.66;;;9.07;66.32
5350;BME280;2697;42.144;24.794;2023-12-04T11:07:18;154942.53;;;9.22;65.50
5350;BME280;2697;42.144;24.794;2023-12-04T11:09:45;154876.75;;;8.96;65.90
5350;BME280;2697;42.144;24.794;2023-12-04T11:12:14;154914.84;;;9.11;65.83
5350;BME280;2697;42.144;24.794;2023-12-04T11:14:46;154896.47;;;9.04;65.77
5350;BME280;2697;42.144;24.794;2023-12-04T11:17:16;154786.00;;;8.61;67.43
5350;BME280;2697;42.144;24.794;2023-12-04T11:19:59;154959.59;;;9.28;67.51
5350;BME280;2697;42.144;24.794;2023-12-04T11:22:27;155025.38;;;9.54;66.22
5350;BME280;2697;42.144;24.794;2023-12-04T11:24:54;155041.19;;;9.60;64.66
5350;BME280;2697;42.144;24.794;2023-12-04T11:27:21;155010.88;;;9.48;63.64
5350;BME280;2697;42.144;24.794;2023-12-04T11:29:48;155079.31;;;9.75;63.12
5350;BME280;2697;42.144;24.794;2023-12-04T11:32:15;155018.81;;;9.51;63.69
5350;BME280;2697;42.144;24.794;2023-12-04T11:34:51;155078.00;;;9.74;63.65
5350;BME280;2697;42.144;24.794;2023-12-04T11:37:20;154964.84;;;9.30;63.41
5350;BME280;2697;42.144;24.794;2023-12-04T11:39:46;154924.09;;;9.14;65.49
5350;BME280;2697;42.144;24.794;2023-12-04T11:42:13;155076.69;;;9.74;64.38
5350;BME280;2697;42.144;24.794;2023-12-04T11:44:41;155049.06;;;9.63;64.40
5350;BME280;2697;42.144;24.794;2023-12-04T11:47:06;155080.63;;;9.75;64.78
5350;BME280;2697;42.144;24.794;2023-12-04T11:49:32;155199.06;;;10.21;61.62
5350;BME280;2697;42.144;24.794;2023-12-04T11:51:59;155046.44;;;9.62;63.02
5350;BME280;2697;42.144;24.794;2023-12-04T11:54:27;155117.50;;;9.89;61.57
5350;BME280;2697;42.144;24.794;2023-12-04T11:57:19;155062.25;;;9.68;63.75
5350;BME280;2697;42.144;24.794;2023-12-04T11:59:46;155106.94;;;9.85;62.08
5350;BME280;2697;42.144;24.794;2023-12-04T12:02:11;155170.13;;;10.10;61.87
5350;BME280;2697;42.144;24.794;2023-12-04T12:04:37;155101.69;;;9.83;61.77
5350;BME280;2697;42.144;24.794;2023-12-04T12:07:04;155188.56;;;10.17;60.46
5350;BME280;2697;42.144;24.794;2023-12-04T12:09:31;155146.44;;;10.00;62.06
5350;BME280;2697;42.144;24.794;2023-12-04T12:12:00;155072.75;;;9.72;62.13
5350;BME280;2697;42.144;24.794;2023-12-04T12:14:25;155146.44;;;10.00;61.87
5350;BME280;2697;42.144;24.794;2023-12-04T12:16:51;155089.88;;;9.79;62.26
5350;BME280;2697;42.144;24.794;2023-12-04T12:19:16;155030.63;;;9.56;62.02
5350;BME280;2697;42.144;24.794;2023-12-04T12:21:44;155035.88;;;9.58;62.55
5350;BME280;2697;42.144;24.794;2023-12-04T12:24:11;155060.88;;;9.67;62.97
5350;BME280;2697;42.144;24.794;2023-12-04T12:26:37;154999.06;;;9.43;64.30
5350;BME280;2697;42.144;24.794;2023-12-04T12:29:02;154850.44;;;8.86;66.90
5350;BME280;2697;42.144;24.794;2023-12-04T12:31:28;154854.38;;;8.88;68.28
5350;BME280;2697;42.144;24.794;2023-12-04T12:33:55;154764.97;;;8.53;70.44
5350;BME280;2697;42.144;24.794;2023-12-04T12:36:21;154736.06;;;8.42;72.90
5350;BME280;2697;42.144;24.794;2023-12-04T12:38:47;154885.94;;;9.00;69.32
5350;BME280;2697;42.144;24.794;2023-12-04T12:41:16;154759.72;;;8.51;75.34
5350;BME280;2697;42.144;24.794;2023-12-04T12:43:42;154793.88;;;8.64;79.11
5350;BME280;2697;42.144;24.794;2023-12-04T12:46:08;154737.38;;;8.42;84.52
5350;BME280;2697;42.144;24.794;2023-12-04T12:48:34;154649.25;;;8.08;90.13
5350;BME280;2697;42.144;24.794;2023-12-04T12:51:02;154601.94;;;7.90;91.13
5350;BME280;2697;42.144;24.794;2023-12-04T12:53:27;154620.34;;;7.97;90.28
5350;BME280;2697;42.144;24.794;2023-12-04T12:55:53;154609.88;;;7.93;91.32
5350;BME280;2697;42.144;24.794;2023-12-04T12:58:19;154600.63;;;7.89;94.59
5350;BME280;2697;42.144;24.794;2023-12-04T13:00:46;154532.31;;;7.63;94.79
5350;BME280;2697;42.144;24.794;2023-12-04T13:03:18;154491.63;;;7.47;95.08